Terminal Aerodrome Forecast
Issued by NWS Boston, MA

Home | Current Version | Previous Version | Text Only | Print | Product List | Glossary On
Versions: 1 2 3 4 5 6 7 8 9 10 11 12 13 14 15 16 17 18 19 20 21
000
FTUS41 KBOX 060535
TAFPVD
TAF
KPVD 060535Z 0606/0706 28007KT P6SM SKC
     FM061100 34006KT P6SM SKC
     FM061600 02007KT P6SM FEW250
     FM062000 08007KT P6SM SCT250
     FM070000 08005KT P6SM BKN100
     FM070200 05005KT P6SM VCSH OVC045=

USA.gov is the U.S. government's official web portal to all federal, state and local government web resources and services.